Time;durP1;ratioP1;P1;durP2;ratioP2;P2;SDS_P1;SDS_P2;PMS_P1;PMS_P2;Temp;Humidity;BMP_temperature;BMP_pressure;BME280_temperature;BME280_humidity;BME280_pressure;Samples;Min_cycle;Max_cycle;Signal;HPM_P1;HPM_P2
2022/06/11 00:01:48;;;;;;;1.50;1.40;;;;;;;22.23;53.23;101810.38;4939132;28;97450;-51
2022/06/11 00:04:23;;;;;;;1.90;1.30;;;;;;;22.23;53.54;101809.63;4932199;28;102070;-50
2022/06/11 00:06:51;;;;;;;1.37;1.30;;;;;;;22.21;53.25;101824.19;4938159;28;101862;-53
2022/06/11 00:09:19;;;;;;;2.00;1.20;;;;;;;22.20;53.23;101814.28;4937358;28;97176;-52
2022/06/11 00:11:45;;;;;;;1.30;1.20;;;;;;;22.20;53.40;101810.72;4939044;28;96746;-52
2022/06/11 00:14:11;;;;;;;2.23;1.50;;;;;;;22.18;53.04;101810.50;4936954;28;97794;-52
2022/06/11 00:16:37;;;;;;;2.27;1.53;;;;;;;22.17;53.12;101806.94;4939006;28;97466;-51
2022/06/11 00:19:04;;;;;;;1.67;1.57;;;;;;;22.16;53.21;101811.06;4938557;28;97282;-52
2022/06/11 00:21:32;;;;;;;1.40;1.30;;;;;;;22.15;53.06;101797.56;4941066;28;97133;-52
2022/06/11 00:23:58;;;;;;;1.53;1.43;;;;;;;22.14;53.07;101796.09;4939391;28;102390;-51
2022/06/11 00:26:24;;;;;;;2.17;1.53;;;;;;;22.12;53.02;101799.44;4940460;28;98436;-50
2022/06/11 00:28:50;;;;;;;1.50;1.40;;;;;;;22.11;53.00;101797.16;4937221;28;97179;-52
2022/06/11 00:31:16;;;;;;;1.90;1.70;;;;;;;22.10;53.04;101790.06;4936088;28;97211;-52
2022/06/11 00:33:42;;;;;;;2.17;1.63;;;;;;;22.08;53.11;101793.41;4936129;28;99202;-54
2022/06/11 00:36:10;;;;;;;3.10;1.83;;;;;;;22.07;53.06;101788.34;4940758;28;97424;-52
2022/06/11 00:38:36;;;;;;;2.07;1.67;;;;;;;22.06;53.15;101796.00;4936656;28;97303;-52
2022/06/11 00:41:03;;;;;;;1.57;1.47;;;;;;;22.05;53.31;101788.13;4943247;28;97069;-53
2022/06/11 00:43:30;;;;;;;1.70;1.60;;;;;;;22.03;53.36;101788.69;4940679;28;97052;-52
2022/06/11 00:46:41;;;;;;;2.30;1.50;;;;;;;22.01;54.19;101787.72;4937658;28;96795;-52
2022/06/11 00:49:44;;;;;;;2.50;1.70;;;;;;;21.98;54.13;101783.97;4923470;28;97363;-52
2022/06/11 00:52:17;;;;;;;1.57;1.47;;;;;;;21.96;53.80;101780.94;4910471;28;98362;-50
2022/06/11 00:54:48;;;;;;;1.80;1.70;;;;;;;21.96;53.75;101778.16;4919966;28;97617;-51
2022/06/11 00:57:15;;;;;;;2.13;1.30;;;;;;;21.96;53.55;101788.59;4918491;28;97767;-52
2022/06/11 00:59:50;;;;;;;2.30;1.73;;;;;;;21.94;53.77;101777.94;4938558;28;97334;-52
2022/06/11 01:02:17;;;;;;;2.53;1.83;;;;;;;21.92;53.66;101774.19;4943948;28;96937;-50
2022/06/11 01:05:00;;;;;;;2.53;1.53;;;;;;;21.93;53.83;101779.22;4936299;28;97264;-51
2022/06/11 01:07:34;;;;;;;1.53;1.40;;;;;;;21.89;53.95;101770.41;4938223;28;101726;-52
2022/06/11 01:10:27;;;;;;;1.87;1.77;;;;;;;21.89;54.42;101767.59;4930195;28;97145;-51
2022/06/11 01:13:10;;;;;;;1.53;1.43;;;;;;;21.86;54.51;101773.56;4936365;28;97189;-53
2022/06/11 01:15:56;;;;;;;3.30;1.87;;;;;;;21.84;54.66;101767.75;4940235;28;97362;-52
2022/06/11 01:18:38;;;;;;;2.00;1.90;;;;;;;21.85;54.55;101770.00;4938390;28;103405;-48
2022/06/11 01:21:35;;;;;;;1.83;1.70;;;;;;;21.83;54.57;101769.03;4937641;28;97029;-52
2022/06/11 01:24:16;;;;;;;2.67;2.00;;;;;;;21.84;54.26;101768.47;4938809;28;96661;-51
2022/06/11 01:26:55;;;;;;;4.73;1.53;;;;;;;21.82;54.04;101770.31;4933181;28;98654;-52
2022/06/11 01:29:34;;;;;;;1.70;1.60;;;;;;;21.82;54.44;101771.03;4942820;28;96809;-51
2022/06/11 01:32:25;;;;;;;1.93;1.63;;;;;;;21.80;54.68;101768.03;4940795;28;97058;-51
2022/06/11 01:35:01;;;;;;;1.60;1.50;;;;;;;21.80;54.65;101770.13;4938369;28;96886;-51
2022/06/11 01:37:40;;;;;;;1.97;1.83;;;;;;;21.78;54.49;101759.44;4936598;28;97131;-51
2022/06/11 01:40:17;;;;;;;2.50;1.83;;;;;;;21.79;54.66;101760.94;4938915;28;101754;-51
2022/06/11 01:42:49;;;;;;;2.40;1.60;;;;;;;21.78;54.53;101759.44;4938397;28;97111;-52
2022/06/11 01:45:35;;;;;;;2.50;1.37;;;;;;;21.80;54.98;101751.22;4937180;28;97710;-52
2022/06/11 01:48:03;;;;;;;2.00;1.57;;;;;;;21.80;54.77;101754.03;4937969;28;100604;-52
2022/06/11 01:50:34;;;;;;;2.20;1.43;;;;;;;21.81;54.79;101754.78;4940099;28;99178;-52
2022/06/11 01:53:38;;;;;;;1.40;1.30;;;;;;;21.82;54.66;101747.91;4942538;28;97441;-51
2022/06/11 01:56:19;;;;;;;2.90;1.50;;;;;;;21.80;55.10;101751.22;4876617;28;97195;-52
2022/06/11 01:59:08;;;;;;;2.70;2.17;;;;;;;21.81;55.47;101752.00;4934646;28;98761;-51
2022/06/11 02:01:53;;;;;;;2.27;1.70;;;;;;;21.81;55.21;101747.16;4941862;28;101746;-51
2022/06/11 02:04:23;;;;;;;1.97;1.73;;;;;;;21.80;54.97;101750.50;4940454;28;97064;-52
2022/06/11 02:07:29;;;;;;;3.80;1.80;;;;;;;21.79;55.41;101744.13;4936375;28;96837;-51
2022/06/11 02:10:26;;;;;;;1.77;1.50;;;;;;;21.78;55.52;101744.66;4929454;28;103129;-52
2022/06/11 02:12:55;;;;;;;1.43;1.33;;;;;;;21.76;54.95;101745.22;4939692;28;100214;-51
2022/06/11 02:15:32;;;;;;;1.80;1.70;;;;;;;21.76;54.94;101739.63;4936343;28;97081;-52
2022/06/11 02:18:03;;;;;;;3.10;1.60;;;;;;;21.76;54.99;101734.00;4932380;28;96995;-52
2022/06/11 02:20:34;;;;;;;2.07;1.83;;;;;;;21.76;54.95;101741.66;4935190;28;98658;-49
2022/06/11 02:23:11;;;;;;;1.57;1.40;;;;;;;21.75;55.15;101735.31;4936647;28;97227;-51
2022/06/11 02:25:45;;;;;;;1.87;1.77;;;;;;;21.73;54.89;101740.72;4935784;28;97090;-51
2022/06/11 02:28:15;;;;;;;2.97;1.80;;;;;;;21.71;54.93;101745.34;4937403;28;97265;-52
2022/06/11 02:30:43;;;;;;;1.43;1.33;;;;;;;21.67;54.87;101745.69;4937601;28;97161;-51
2022/06/11 02:33:11;;;;;;;1.77;1.67;;;;;;;21.67;54.95;101748.47;4936384;28;97305;-52
2022/06/11 02:35:59;;;;;;;1.60;1.50;;;;;;;21.67;54.95;101750.56;4937959;28;97066;-48
2022/06/11 02:38:27;;;;;;;2.43;1.50;;;;;;;21.66;55.02;101746.97;4935973;28;97115;-50
2022/06/11 02:40:54;;;;;;;1.80;1.70;;;;;;;21.63;55.08;101745.25;4933333;28;97663;-50
2022/06/11 02:43:20;;;;;;;2.60;1.67;;;;;;;21.61;55.04;101745.06;4936520;28;96740;-49
2022/06/11 02:45:46;;;;;;;2.60;1.87;;;;;;;21.57;55.30;101755.84;4935812;28;96706;-52
2022/06/11 02:48:13;;;;;;;1.60;1.50;;;;;;;21.56;55.33;101745.94;4934087;28;97163;-49
2022/06/11 02:50:39;;;;;;;2.10;1.70;;;;;;;21.51;55.18;101753.16;4937305;28;98608;-52
2022/06/11 02:53:07;;;;;;;3.27;2.30;;;;;;;21.46;55.46;101745.66;4938829;28;97237;-52
2022/06/11 02:55:33;;;;;;;2.33;1.50;;;;;;;21.46;55.46;101739.28;4935120;28;97131;-52
2022/06/11 02:57:59;;;;;;;1.63;1.53;;;;;;;21.45;55.51;101743.38;4935265;28;96955;-50
2022/06/11 03:00:46;;;;;;;1.60;1.40;;;;;;;21.45;55.90;101743.38;4939518;28;96681;-51
2022/06/11 03:03:11;;;;;;;1.83;1.73;;;;;;;21.45;55.47;101737.75;4940863;28;98504;-52
2022/06/11 03:05:38;;;;;;;2.13;1.60;;;;;;;21.45;55.64;101732.91;4939357;28;98020;-49
2022/06/11 03:08:05;;;;;;;3.03;1.70;;;;;;;21.45;55.72;101737.75;4934347;28;96974;-52
2022/06/11 03:10:31;;;;;;;3.27;2.00;;;;;;;21.46;55.71;101736.47;4938486;28;98633;-51
2022/06/11 03:12:57;;;;;;;2.40;1.70;;;;;;;21.46;55.84;101740.03;4933192;28;97013;-51
2022/06/11 03:15:24;;;;;;;3.30;1.60;;;;;;;21.46;55.74;101737.25;4936153;28;97114;-50
2022/06/11 03:17:52;;;;;;;2.40;1.50;;;;;;;21.45;55.59;101744.13;4928476;28;97120;-52
2022/06/11 03:20:20;;;;;;;2.77;1.47;;;;;;;21.45;55.50;101743.38;4938795;28;97012;-52
2022/06/11 03:22:46;;;;;;;1.93;1.70;;;;;;;21.43;55.54;101751.56;4939506;28;98707;-51
2022/06/11 03:25:12;;;;;;;1.30;1.20;;;;;;;21.43;55.46;101754.34;4933751;28;97091;-52
2022/06/11 03:27:39;;;;;;;4.73;1.53;;;;;;;21.44;55.45;101755.88;4934655;28;97358;-51
2022/06/11 03:30:08;;;;;;;2.23;1.70;;;;;;;21.44;55.55;101761.47;4933978;28;97190;-52
2022/06/11 03:32:33;;;;;;;3.93;1.60;;;;;;;21.43;55.52;101751.56;4939673;28;97701;-52
2022/06/11 03:34:59;;;;;;;1.93;1.50;;;;;;;21.42;55.59;101752.88;4934211;28;96902;-53
2022/06/11 03:37:24;;;;;;;14.50;1.90;;;;;;;21.40;55.72;101759.03;4935807;28;96954;-51
2022/06/11 03:39:50;;;;;;;2.80;1.50;;;;;;;21.40;55.80;101755.47;4935232;28;99927;-52
2022/06/11 03:42:17;;;;;;;1.80;1.70;;;;;;;21.42;55.66;101769.66;4937284;28;97111;-52
2022/06/11 03:44:42;;;;;;;2.10;1.40;;;;;;;21.39;55.72;101760.31;4933610;28;96619;-52
2022/06/11 03:47:08;;;;;;;1.33;1.23;;;;;;;21.40;55.73;101772.25;4936218;28;97245;-52
2022/06/11 03:49:34;;;;;;;2.20;1.43;;;;;;;21.40;55.73;101763.84;4936100;28;97203;-52
2022/06/11 03:52:00;;;;;;;2.70;1.63;;;;;;;21.40;55.74;101763.84;4934181;28;96596;-51
2022/06/11 03:54:26;;;;;;;3.63;1.30;;;;;;;21.40;55.88;101769.47;4924775;28;96633;-52
2022/06/11 03:56:52;;;;;;;1.60;1.50;;;;;;;21.39;55.84;101779.13;4932566;28;97002;-51
2022/06/11 03:59:18;;;;;;;1.63;1.53;;;;;;;21.41;55.88;101774.50;4933257;28;97609;-51
2022/06/11 04:01:45;;;;;;;1.63;1.53;;;;;;;21.42;55.93;101784.44;4939501;28;97199;-52
2022/06/11 04:04:14;;;;;;;1.47;1.37;;;;;;;21.43;55.93;101771.16;4935227;28;97015;-49
2022/06/11 04:06:43;;;;;;;1.63;1.43;;;;;;;21.44;55.99;101787.44;4938394;28;97004;-50
2022/06/11 04:09:15;;;;;;;1.37;1.30;;;;;;;21.45;56.00;101776.97;4933396;28;97489;-50
2022/06/11 04:11:41;;;;;;;2.33;1.50;;;;;;;21.45;55.96;101779.78;4936335;28;97014;-49
2022/06/11 04:14:07;;;;;;;3.90;1.40;;;;;;;21.44;55.88;101783.88;4933593;28;97267;-50
2022/06/11 04:16:37;;;;;;;1.57;1.47;;;;;;;21.45;55.96;101779.78;4936578;28;97441;-49
2022/06/11 04:19:05;;;;;;;2.17;1.97;;;;;;;21.47;55.85;101783.53;4935936;28;97729;-53
2022/06/11 04:21:33;;;;;;;3.17;1.53;;;;;;;21.50;55.98;101787.31;4935349;28;97010;-49
2022/06/11 04:24:00;;;;;;;1.67;1.37;;;;;;;21.52;56.09;101790.31;4938224;28;97109;-51
2022/06/11 04:26:31;;;;;;;1.43;1.33;;;;;;;21.53;56.20;101792.59;4938631;28;97135;-53
2022/06/11 04:28:59;;;;;;;2.80;1.70;;;;;;;21.53;56.08;101798.19;4930089;28;96930;-49
2022/06/11 04:31:24;;;;;;;1.33;1.10;;;;;;;21.53;55.99;101789.03;4935493;28;98844;-49
2022/06/11 04:33:50;;;;;;;2.30;1.40;;;;;;;21.52;56.16;101791.06;4934767;28;97168;-50
2022/06/11 04:36:17;;;;;;;1.50;1.33;;;;;;;21.54;56.11;101801.72;4934341;28;97264;-52
2022/06/11 04:38:44;;;;;;;1.40;1.30;;;;;;;21.56;56.27;101796.34;4935426;28;98426;-50
2022/06/11 04:41:10;;;;;;;3.80;1.50;;;;;;;21.58;56.28;101802.16;4932635;28;97128;-50
2022/06/11 04:43:36;;;;;;;1.70;1.60;;;;;;;21.62;56.24;101797.72;4935641;28;103119;-50
2022/06/11 04:46:02;;;;;;;2.80;1.70;;;;;;;21.69;56.21;101801.19;4941551;28;97076;-49
2022/06/11 04:48:28;;;;;;;1.70;1.60;;;;;;;21.73;56.18;101805.16;4935217;28;97841;-49
2022/06/11 04:50:54;;;;;;;1.90;1.80;;;;;;;21.80;56.20;101804.47;4940336;28;97392;-51
2022/06/11 04:53:19;;;;;;;2.40;1.57;;;;;;;21.84;56.13;101802.09;4942037;28;97013;-49
2022/06/11 04:55:45;;;;;;;1.70;1.60;;;;;;;21.92;56.16;101807.81;4936440;28;97079;-51
2022/06/11 04:58:11;;;;;;;1.83;1.50;;;;;;;21.98;55.97;101811.22;4939055;28;98734;-49
2022/06/11 05:00:36;;;;;;;2.30;1.20;;;;;;;22.06;55.63;101803.69;4936100;28;97062;-50
2022/06/11 05:03:02;;;;;;;1.73;1.43;;;;;;;22.11;55.41;101809.13;4942719;28;97289;-50
2022/06/11 05:05:28;;;;;;;1.87;1.10;;;;;;;22.17;54.98;101806.94;4942499;28;97032;-53
2022/06/11 05:07:53;;;;;;;1.53;1.20;;;;;;;22.23;55.25;101812.44;4945741;28;97304;-51
2022/06/11 05:10:25;;;;;;;1.70;1.60;;;;;;;22.29;54.95;101807.44;4941698;28;97335;-51
2022/06/11 05:12:50;;;;;;;1.53;1.17;;;;;;;22.32;54.94;101809.88;4942864;28;97101;-54
2022/06/11 05:15:16;;;;;;;3.60;1.37;;;;;;;22.35;55.03;101811.63;4934624;28;97502;-51
2022/06/11 05:17:42;;;;;;;2.83;1.77;;;;;;;22.40;54.90;101804.38;4938512;28;97218;-50
2022/06/11 05:20:09;;;;;;;1.40;1.30;;;;;;;22.44;54.65;101818.78;4942271;28;97213;-49
2022/06/11 05:22:35;;;;;;;1.60;1.10;;;;;;;22.49;54.60;101817.16;4939164;28;97115;-53
2022/06/11 05:25:01;;;;;;;4.10;1.40;;;;;;;22.53;54.63;101825.97;4937425;28;96937;-50
2022/06/11 05:27:26;;;;;;;2.73;1.20;;;;;;;22.57;54.54;101824.31;4938791;28;98587;-51
2022/06/11 05:30:06;;;;;;;3.13;1.47;;;;;;;22.64;54.34;101831.31;4944532;28;97311;-51
2022/06/11 05:32:36;;;;;;;1.30;1.20;;;;;;;22.65;54.38;101830.78;4942862;28;98363;-50
2022/06/11 05:35:05;;;;;;;2.83;1.43;;;;;;;22.69;54.22;101834.00;4934792;28;97019;-50
2022/06/11 05:37:30;;;;;;;2.80;1.73;;;;;;;22.75;54.36;101831.03;4933670;28;97462;-49
2022/06/11 05:39:56;;;;;;;1.97;1.40;;;;;;;22.77;54.22;101826.41;4936293;28;97356;-49
2022/06/11 05:42:23;;;;;;;4.10;1.83;;;;;;;22.82;54.02;101830.34;4935648;28;97729;-49
2022/06/11 05:44:49;;;;;;;1.27;1.17;;;;;;;22.87;53.96;101838.63;4937981;28;96913;-49
2022/06/11 05:47:18;;;;;;;1.47;1.23;;;;;;;22.90;53.92;101831.91;4937129;28;97192;-49
2022/06/11 05:49:47;;;;;;;2.90;1.23;;;;;;;22.94;54.03;101832.31;4937356;28;103805;-50
2022/06/11 05:52:18;;;;;;;4.30;1.20;;;;;;;23.05;53.79;101834.81;4952419;28;97255;-51
2022/06/11 05:54:46;;;;;;;2.73;1.50;;;;;;;23.13;53.80;101844.03;4941843;28;97008;-50
2022/06/11 05:57:15;;;;;;;1.40;1.30;;;;;;;23.18;53.84;101836.78;4938506;28;97877;-51
2022/06/11 05:59:48;;;;;;;1.50;1.40;;;;;;;23.15;53.88;101832.28;4932503;28;97804;-51
2022/06/11 06:02:15;;;;;;;3.13;1.47;;;;;;;23.17;53.81;101860.56;4937402;28;97046;-51
2022/06/11 06:04:41;;;;;;;3.67;1.60;;;;;;;23.18;53.84;101836.78;4952416;28;96761;-52
2022/06/11 06:07:08;;;;;;;1.73;1.40;;;;;;;23.25;53.72;101838.13;4934614;28;97402;-50
2022/06/11 06:09:34;;;;;;;3.70;1.53;;;;;;;23.30;53.64;101835.16;4936208;28;97348;-52
2022/06/11 06:12:00;;;;;;;2.17;1.77;;;;;;;23.33;53.35;101845.31;4936148;28;96848;-50
2022/06/11 06:14:25;;;;;;;2.57;1.70;;;;;;;23.40;53.26;101838.97;4938820;28;98589;-50
2022/06/11 06:16:51;;;;;;;2.30;1.70;;;;;;;23.53;53.24;101847.28;4934306;28;97133;-51
2022/06/11 06:19:16;;;;;;;1.93;1.57;;;;;;;23.60;53.02;101846.59;4933824;28;97724;-49
2022/06/11 06:21:42;;;;;;;2.63;1.40;;;;;;;23.61;52.85;101848.06;4949618;28;97288;-52
2022/06/11 06:24:08;;;;;;;3.60;1.73;;;;;;;23.61;52.74;101853.69;4936882;28;97997;-52
2022/06/11 06:26:33;;;;;;;2.07;1.80;;;;;;;23.64;53.00;101858.22;4933683;28;98065;-50
2022/06/11 06:28:59;;;;;;;3.23;1.90;;;;;;;23.66;53.02;101855.59;4935433;28;97284;-50
2022/06/11 06:31:25;;;;;;;4.60;1.87;;;;;;;23.71;52.76;101857.50;4936355;28;96785;-50
2022/06/11 06:33:51;;;;;;;6.20;2.30;;;;;;;23.75;52.99;101852.25;4938412;28;97350;-53
2022/06/11 06:36:18;;;;;;;4.10;1.90;;;;;;;23.85;52.54;101849.69;4937989;28;97087;-50
2022/06/11 06:38:44;;;;;;;4.33;2.00;;;;;;;23.93;52.67;101858.88;4939076;28;97290;-49
2022/06/11 06:41:11;;;;;;;2.97;2.07;;;;;;;24.01;52.48;101862.47;4931124;28;97177;-52
2022/06/11 06:43:36;;;;;;;4.47;2.00;;;;;;;24.09;52.28;101857.63;4937243;28;96909;-51
2022/06/11 06:46:03;;;;;;;3.00;1.70;;;;;;;24.12;52.18;101858.59;4931632;28;97179;-52
2022/06/11 06:48:28;;;;;;;6.00;2.00;;;;;;;24.11;52.12;101859.91;4938129;28;97211;-52
2022/06/11 06:50:53;;;;;;;2.80;1.63;;;;;;;24.05;52.46;101867.78;4939558;28;96753;-51
2022/06/11 06:53:20;;;;;;;2.70;2.00;;;;;;;24.02;52.54;101866.03;4936070;28;96760;-51
2022/06/11 06:55:46;;;;;;;2.03;1.83;;;;;;;24.00;52.42;101868.66;4938124;28;97071;-52
2022/06/11 06:58:14;;;;;;;3.17;2.07;;;;;;;24.00;52.51;101869.41;4940283;28;96717;-49
2022/06/11 07:00:40;;;;;;;3.20;2.90;;;;;;;23.98;52.40;101871.28;4938845;28;97065;-50
2022/06/11 07:03:05;;;;;;;3.17;2.87;;;;;;;23.97;52.63;101870.50;4935135;28;97271;-49
2022/06/11 07:05:31;;;;;;;3.77;2.90;;;;;;;24.04;52.66;101866.97;4937684;28;99923;-50
2022/06/11 07:07:56;;;;;;;4.17;3.67;;;;;;;24.04;52.28;101871.84;4937358;28;97183;-48
2022/06/11 07:10:24;;;;;;;3.63;3.43;;;;;;;24.04;52.59;101871.84;4935404;28;97231;-50
2022/06/11 07:12:49;;;;;;;5.40;3.80;;;;;;;24.09;52.26;101876.59;4936820;28;97277;-53
2022/06/11 07:15:15;;;;;;;5.07;3.90;;;;;;;24.17;52.25;101874.53;4932842;28;97090;-52
2022/06/11 07:17:47;;;;;;;4.47;3.67;;;;;;;24.24;51.79;101877.38;4937425;28;96914;-51
2022/06/11 07:20:23;;;;;;;3.70;3.00;;;;;;;24.30;51.59;101882.81;4935022;28;97349;-49
2022/06/11 07:22:54;;;;;;;4.53;2.67;;;;;;;24.32;51.60;101871.75;4934848;28;97082;-51
2022/06/11 07:25:20;;;;;;;2.33;2.13;;;;;;;24.34;51.20;101877.56;4931388;28;97203;-51
2022/06/11 07:27:52;;;;;;;2.53;2.43;;;;;;;24.37;51.04;101871.59;4936997;28;97165;-53
2022/06/11 07:30:21;;;;;;;2.97;2.23;;;;;;;24.36;51.02;101872.91;4935725;28;96940;-51
2022/06/11 07:32:51;;;;;;;4.00;1.80;;;;;;;24.44;50.92;101872.91;4933190;28;96981;-51
2022/06/11 07:35:17;;;;;;;1.43;1.30;;;;;;;24.49;50.72;101872.72;4933536;28;102291;-52
2022/06/11 07:37:45;;;;;;;1.37;1.27;;;;;;;24.56;50.56;101872.00;4937368;28;97128;-52
2022/06/11 07:40:11;;;;;;;2.90;0.80;;;;;;;24.60;50.15;101865.97;4935124;28;96899;-50
2022/06/11 07:42:37;;;;;;;1.17;1.07;;;;;;;24.63;49.90;101876.13;4937863;28;97073;-53
2022/06/11 07:45:02;;;;;;;1.17;0.90;;;;;;;24.66;49.67;101874.97;4937716;28;97439;-49
2022/06/11 07:50:12;;;;;;;1.33;1.10;;;;;;;24.79;49.18;101876.91;4937653;28;97029;-49
2022/06/11 07:52:39;;;;;;;1.00;0.80;;;;;;;24.84;48.77;101882.34;4948809;28;97129;-54
2022/06/11 07:55:06;;;;;;;3.70;1.20;;;;;;;24.88;48.73;101874.25;4933836;28;97027;-50
2022/06/11 07:57:31;;;;;;;0.93;0.93;;;;;;;24.96;48.51;101866.56;4935569;28;98612;-49
2022/06/11 07:59:56;;;;;;;2.20;0.80;;;;;;;25.01;48.57;101865.63;4937006;28;96838;-51
2022/06/11 08:02:22;;;;;;;2.17;0.97;;;;;;;25.05;48.49;101868.78;4936803;28;97288;-52
2022/06/11 08:04:47;;;;;;;0.83;0.83;;;;;;;25.10;48.19;101872.72;4942176;28;96680;-50
2022/06/11 08:07:12;;;;;;;0.90;0.77;;;;;;;25.15;47.99;101866.91;4927482;28;100228;-50
2022/06/11 08:09:38;;;;;;;1.83;1.07;;;;;;;25.23;48.06;101864.81;4933549;28;97568;-50
2022/06/11 08:12:04;;;;;;;2.50;1.17;;;;;;;25.32;47.99;101866.31;4935794;28;96673;-50
2022/06/11 08:14:29;;;;;;;1.47;0.90;;;;;;;25.39;47.88;101873.25;4936426;28;96877;-51
2022/06/11 08:16:54;;;;;;;3.30;1.20;;;;;;;25.46;48.00;101876.09;4934249;28;97544;-49
2022/06/11 08:19:20;;;;;;;1.00;0.80;;;;;;;25.54;47.45;101870.41;4939287;28;96817;-50
2022/06/11 08:21:45;;;;;;;1.10;1.00;;;;;;;25.59;47.48;101866.63;4940270;28;96999;-53
2022/06/11 08:24:10;;;;;;;1.00;0.70;;;;;;;25.63;47.28;101873.38;4944433;28;96794;-51
2022/06/11 08:26:37;;;;;;;1.20;1.00;;;;;;;25.67;46.75;101873.00;4942923;28;97210;-53
2022/06/11 08:29:02;;;;;;;1.43;1.03;;;;;;;25.73;46.34;101873.56;4945720;28;97582;-50
2022/06/11 08:31:28;;;;;;;2.30;1.07;;;;;;;25.72;46.29;101869.22;4941662;28;97336;-55
2022/06/11 08:33:53;;;;;;;2.03;1.00;;;;;;;25.76;46.34;101872.41;4939075;28;100438;-49
2022/06/11 08:36:18;;;;;;;1.13;0.93;;;;;;;25.81;45.94;101874.25;4939686;28;96970;-48
2022/06/11 08:38:44;;;;;;;0.77;0.70;;;;;;;25.87;45.72;101872.72;4939335;28;97134;-49
2022/06/11 08:41:17;;;;;;;0.73;0.73;;;;;;;25.94;44.79;101866.31;4941290;28;97363;-50
2022/06/11 08:43:52;;;;;;;1.80;0.90;;;;;;;26.02;44.89;101874.72;4942905;28;97257;-51
2022/06/11 08:46:22;;;;;;;2.03;0.70;;;;;;;26.10;45.41;101875.47;4940859;28;101605;-50
2022/06/11 08:49:09;;;;;;;1.00;0.70;;;;;;;26.18;44.04;101872.59;4942002;28;97255;-49
2022/06/11 08:51:40;;;;;;;0.80;0.70;;;;;;;26.21;45.07;101869.34;4938285;28;97381;-49
2022/06/11 08:54:12;;;;;;;1.17;0.97;;;;;;;26.30;44.80;101868.75;4939411;28;97739;-51
2022/06/11 08:56:37;;;;;;;0.97;0.70;;;;;;;26.42;44.72;101878.28;4935677;28;97134;-55
2022/06/11 08:59:23;;;;;;;1.93;0.80;;;;;;;26.50;43.51;101866.91;4938725;28;96910;-50
2022/06/11 09:02:05;;;;;;;0.63;0.50;;;;;;;26.56;43.58;101868.19;4940049;28;97046;-49
2022/06/11 09:04:49;;;;;;;1.67;0.90;;;;;;;26.63;43.90;101860.97;4942342;28;96941;-53
2022/06/11 09:07:26;;;;;;;1.10;0.90;;;;;;;26.72;43.74;101863.91;4943006;28;100228;-51
2022/06/11 09:09:51;;;;;;;1.50;0.67;;;;;;;26.79;43.90;101858.81;4943392;28;97213;-50
2022/06/11 09:12:38;;;;;;;1.00;0.70;;;;;;;26.84;42.70;101863.47;4945651;28;97226;-50
2022/06/11 09:15:28;;;;;;;0.70;0.50;;;;;;;26.93;42.76;101863.56;4935438;28;101969;-50
2022/06/11 09:18:14;;;;;;;1.73;1.00;;;;;;;26.87;42.67;101862.31;4954772;28;102880;-50
2022/06/11 09:20:58;;;;;;;1.90;0.80;;;;;;;26.90;42.57;101866.81;4938925;28;97134;-49
2022/06/11 09:23:39;;;;;;;0.70;0.60;;;;;;;26.98;42.82;101856.94;4937369;28;97040;-49
2022/06/11 09:26:35;;;;;;;0.67;0.60;;;;;;;27.20;42.39;101867.25;4938940;28;100595;-49
2022/06/11 09:29:40;;;;;;;1.83;0.70;;;;;;;27.42;41.92;101863.47;4938103;28;100336;-53
2022/06/11 09:32:14;;;;;;;0.83;0.67;;;;;;;27.64;41.55;101867.34;4925707;28;97004;-52
2022/06/11 09:34:53;;;;;;;1.77;0.90;;;;;;;27.77;41.00;101866.25;4937052;28;96976;-50
2022/06/11 09:37:27;;;;;;;1.63;0.67;;;;;;;27.87;40.49;101873.47;4950323;28;97379;-52
2022/06/11 09:40:18;;;;;;;1.57;0.80;;;;;;;27.95;40.74;101871.31;4939396;28;97660;-53
2022/06/11 09:42:50;;;;;;;0.73;0.50;;;;;;;28.09;39.87;101866.78;4934696;28;97081;-50
2022/06/11 09:45:27;;;;;;;0.90;0.60;;;;;;;28.22;40.35;101879.06;4936672;28;97058;-52
2022/06/11 09:48:10;;;;;;;1.03;0.50;;;;;;;28.35;40.46;101881.53;4938224;28;98420;-51
2022/06/11 09:50:58;;;;;;;0.90;0.60;;;;;;;28.44;39.88;101869.50;4937788;28;97234;-52
2022/06/11 09:53:39;;;;;;;0.83;0.47;;;;;;;28.29;38.74;101873.28;4939343;28;96847;-50
2022/06/11 09:56:29;;;;;;;0.90;0.80;;;;;;;28.42;38.52;101875.00;4936510;28;96934;-49
2022/06/11 09:58:54;;;;;;;0.87;0.50;;;;;;;28.45;39.99;101879.47;4932736;28;103248;-51
2022/06/11 10:01:28;;;;;;;0.70;0.50;;;;;;;28.46;39.48;101886.63;4936699;28;97386;-51
2022/06/11 10:04:00;;;;;;;0.90;0.63;;;;;;;28.56;39.56;101874.00;4931983;28;96843;-51
2022/06/11 10:06:46;;;;;;;1.77;0.67;;;;;;;28.65;37.99;101876.16;4933666;28;97158;-51
2022/06/11 10:09:22;;;;;;;0.70;0.60;;;;;;;28.78;37.34;101881.41;4935759;28;100572;-51
2022/06/11 10:12:03;;;;;;;1.00;0.60;;;;;;;28.78;38.96;101877.84;4935227;28;97143;-51
2022/06/11 10:14:28;;;;;;;1.00;0.60;;;;;;;28.86;38.73;101882.03;4935771;28;97221;-50
2022/06/11 10:17:11;;;;;;;0.80;0.57;;;;;;;28.78;37.14;101878.59;4936472;28;98732;-51
2022/06/11 10:19:51;;;;;;;1.30;0.60;;;;;;;28.77;37.25;101876.31;4937716;28;97469;-51
2022/06/11 10:22:23;;;;;;;0.90;0.70;;;;;;;28.74;38.39;101878.28;4934471;28;102058;-51
2022/06/11 10:25:19;;;;;;;1.10;0.70;;;;;;;28.75;37.38;101871.25;4940187;28;96961;-51
2022/06/11 10:28:32;;;;;;;1.17;0.70;;;;;;;28.77;37.08;101876.31;4934923;28;97031;-50
2022/06/11 10:31:25;;;;;;;0.80;0.60;;;;;;;28.80;36.67;101870.25;4920256;28;100727;-52
2022/06/11 10:33:57;;;;;;;1.30;0.60;;;;;;;28.87;37.11;101880.69;4935538;28;97262;-50
2022/06/11 10:36:37;;;;;;;1.40;0.53;;;;;;;28.90;36.48;101879.50;4934247;28;97848;-51
2022/06/11 10:39:23;;;;;;;1.23;0.60;;;;;;;28.92;37.61;101887.41;4935073;28;97354;-52
2022/06/11 10:42:11;;;;;;;1.90;0.70;;;;;;;29.01;35.59;101883.84;4936125;28;96923;-51
2022/06/11 10:44:41;;;;;;;0.97;0.60;;;;;;;29.08;36.88;101899.97;4933137;28;100117;-51
2022/06/11 10:47:20;;;;;;;0.93;0.53;;;;;;;29.13;35.34;101884.03;4925693;28;97090;-50
2022/06/11 10:49:49;;;;;;;1.20;0.57;;;;;;;29.09;36.65;101892.22;4936615;28;97710;-51
2022/06/11 10:52:35;;;;;;;0.77;0.40;;;;;;;29.03;34.91;101875.50;4939842;28;97272;-52
2022/06/11 10:55:03;;;;;;;0.60;0.40;;;;;;;29.00;36.19;101882.38;4938033;28;98232;-50
2022/06/11 10:57:31;;;;;;;1.90;0.73;;;;;;;29.05;36.06;101878.47;4936521;28;97101;-52
2022/06/11 11:00:17;;;;;;;0.83;0.50;;;;;;;29.11;34.52;101881.78;4941986;28;97609;-51
2022/06/11 11:02:50;;;;;;;1.93;0.70;;;;;;;29.18;35.44;101883.75;4938893;28;97500;-51
2022/06/11 11:05:18;;;;;;;1.10;0.50;;;;;;;29.09;35.56;101889.38;4937132;28;97178;-51
2022/06/11 11:07:59;;;;;;;1.43;0.60;;;;;;;28.93;35.08;101880.41;4933623;28;97123;-51
2022/06/11 11:10:36;;;;;;;2.30;0.60;;;;;;;28.87;35.41;101885.63;4936180;28;97087;-51
2022/06/11 11:13:05;;;;;;;0.70;0.60;;;;;;;29.01;35.99;101883.84;4938010;28;102404;-56
2022/06/11 11:15:46;;;;;;;1.17;0.50;;;;;;;29.01;34.24;101878.19;4924203;28;97366;-51
2022/06/11 11:18:20;;;;;;;1.37;0.50;;;;;;;29.12;34.78;101882.50;4936003;28;97381;-50
2022/06/11 11:20:48;;;;;;;1.10;0.60;;;;;;;29.30;35.47;101889.59;4934690;28;96863;-51
2022/06/11 11:23:16;;;;;;;1.00;0.60;;;;;;;29.46;35.24;101896.47;4926456;28;97588;-51
2022/06/11 11:25:53;;;;;;;1.27;0.60;;;;;;;29.46;33.76;101887.97;4934934;28;97886;-51
2022/06/11 11:28:29;;;;;;;1.07;0.70;;;;;;;29.33;34.44;101892.00;4937953;28;96743;-52
2022/06/11 11:31:06;;;;;;;0.87;0.60;;;;;;;29.52;34.78;101888.41;4934738;28;96850;-51
2022/06/11 11:33:43;;;;;;;1.07;0.67;;;;;;;29.60;33.64;101900.34;4932160;28;96767;-51
2022/06/11 11:36:14;;;;;;;1.10;0.60;;;;;;;29.76;33.58;101878.84;4934147;28;97536;-51
2022/06/11 11:38:40;;;;;;;2.17;0.70;;;;;;;29.83;34.58;101889.31;4935197;28;97301;-50
2022/06/11 11:41:05;;;;;;;0.80;0.70;;;;;;;30.02;34.75;101902.72;4938725;28;97469;-51
2022/06/11 11:43:41;;;;;;;1.23;0.60;;;;;;;30.09;32.92;101891.19;4941410;28;97255;-50
2022/06/11 11:46:14;;;;;;;0.90;0.80;;;;;;;29.95;33.84;101897.94;4934947;28;97709;-52
2022/06/11 11:48:44;;;;;;;1.10;0.50;;;;;;;29.87;34.11;101895.28;4938032;28;96937;-51